Time;durP1;ratioP1;P1;durP2;ratioP2;P2;SDS_P1;SDS_P2;PMS_P1;PMS_P2;Temp;Humidity;BMP_temperature;BMP_pressure;BME280_temperature;BME280_humidity;BME280_pressure;Samples;Min_cycle;Max_cycle;Signal;HPM_P1;HPM_P2
2023/06/14 00:01:20;;;;;;;2.90;1.70;;;19.30;1.00;;;;;;20657399;28;20038;-46
2023/06/14 00:11:41;;;;;;;4.70;2.30;;;19.20;1.00;;;;;;20671358;28;20050;-46
2023/06/14 00:22:03;;;;;;;6.82;2.17;;;19.20;1.00;;;;;;20661161;28;20132;-46
2023/06/14 00:32:25;;;;;;;5.97;2.00;;;19.20;1.00;;;;;;20662462;28;20042;-46
2023/06/14 00:42:47;;;;;;;6.20;2.13;;;19.20;1.00;;;;;;20666845;28;20064;-46
2023/06/14 00:53:08;;;;;;;4.82;2.08;;;19.10;1.00;;;;;;20671375;28;20038;-46
2023/06/14 01:03:31;;;;;;;5.97;2.83;;;19.00;1.00;;;;;;20674573;28;20034;-46
2023/06/14 01:13:55;;;;;;;6.38;2.10;;;18.90;1.00;;;;;;20685251;28;20117;-46
2023/06/14 01:24:19;;;;;;;5.60;2.33;;;18.90;1.00;;;;;;20677015;28;20030;-45
2023/06/14 01:34:40;;;;;;;4.63;2.45;;;18.80;1.00;;;;;;20667353;28;20054;-46
2023/06/14 01:45:03;;;;;;;6.35;2.00;;;18.60;1.00;;;;;;20681395;28;20206;-45
2023/06/14 01:55:27;;;;;;;3.92;2.35;;;18.50;1.00;;;;;;20679325;28;20124;-46
2023/06/14 02:05:48;;;;;;;4.53;2.33;;;18.30;1.00;;;;;;20670977;28;20465;-46
2023/06/14 02:16:10;;;;;;;8.05;1.75;;;18.20;1.00;;;;;;20654175;28;20890;-46
2023/06/14 02:26:31;;;;;;;3.60;1.95;;;18.00;1.00;;;;;;20652715;28;20046;-45
2023/06/14 02:36:53;;;;;;;5.65;1.85;;;17.90;1.00;;;;;;20656120;28;20076;-46
2023/06/14 02:47:14;;;;;;;3.38;1.90;;;17.80;1.00;;;;;;20655749;28;20041;-46
2023/06/14 02:57:36;;;;;;;6.53;2.10;;;17.60;1.00;;;;;;20659738;28;22475;-46
2023/06/14 03:07:57;;;;;;;6.03;1.88;;;17.50;1.00;;;;;;20670615;28;20255;-46
2023/06/14 03:18:19;;;;;;;3.35;1.88;;;17.40;1.00;;;;;;20667797;28;20049;-46
2023/06/14 03:28:47;;;;;;;3.30;1.70;;;17.20;1.00;;;;;;20665629;28;20457;-46
2023/06/14 03:39:09;;;;;;;5.18;2.10;;;16.90;1.00;;;;;;20669150;28;20053;-46
2023/06/14 03:49:31;;;;;;;4.70;2.03;;;16.70;1.00;;;;;;20666679;28;20053;-46
2023/06/14 03:59:52;;;;;;;4.05;2.00;;;16.50;1.00;;;;;;20651423;28;20461;-46
2023/06/14 04:10:15;;;;;;;3.65;1.90;;;16.50;1.00;;;;;;20664329;28;20072;-45
2023/06/14 04:20:37;;;;;;;6.82;2.33;;;16.30;1.00;;;;;;20653738;28;20034;-45
2023/06/14 04:31:01;;;;;;;2.65;1.58;;;16.40;1.00;;;;;;20681958;28;20045;-46
2023/06/14 04:41:22;;;;;;;5.00;1.88;;;16.30;1.00;;;;;;20681880;28;20058;-46
2023/06/14 04:51:45;;;;;;;7.55;1.80;;;16.50;1.00;;;;;;20680462;28;20029;-45
2023/06/14 05:02:06;;;;;;;4.05;2.33;;;16.60;1.00;;;;;;20673808;28;20125;-45
2023/06/14 05:12:29;;;;;;;3.17;1.77;;;16.70;1.00;;;;;;20683440;28;20451;-46
2023/06/14 05:22:54;;;;;;;4.13;1.75;;;16.70;1.00;;;;;;20674914;28;20053;-45
2023/06/14 05:33:15;;;;;;;3.78;1.63;;;17.00;1.00;;;;;;20657478;28;20064;-45
2023/06/14 05:43:36;;;;;;;4.70;1.80;;;17.40;1.00;;;;;;20657002;28;20050;-45
2023/06/14 05:53:58;;;;;;;3.35;1.58;;;17.90;1.00;;;;;;20662901;28;20509;-45
2023/06/14 06:04:20;;;;;;;3.83;1.90;;;18.20;1.00;;;;;;20665119;28;20045;-45
2023/06/14 06:14:41;;;;;;;3.28;1.75;;;18.70;1.00;;;;;;20657619;28;20054;-45
2023/06/14 06:25:03;;;;;;;5.03;2.50;;;18.70;1.00;;;;;;20650967;28;20053;-45
2023/06/14 06:35:24;;;;;;;5.10;2.08;;;19.00;1.00;;;;;;20649303;28;20054;-46
2023/06/14 06:45:45;;;;;;;7.05;2.10;;;19.30;1.00;;;;;;20648660;28;20042;-46
2023/06/14 06:56:07;;;;;;;7.88;2.20;;;19.60;1.00;;;;;;20643853;28;20060;-46
2023/06/14 07:06:28;;;;;;;3.40;1.70;;;19.80;1.00;;;;;;20661041;28;20082;-46
2023/06/14 07:16:49;;;;;;;8.57;1.95;;;20.30;1.00;;;;;;20650811;28;20602;-46
2023/06/14 07:27:13;;;;;;;3.28;1.92;;;20.70;1.00;;;;;;20671931;28;20037;-46
2023/06/14 07:37:34;;;;;;;4.07;1.80;;;21.00;1.00;;;;;;20630468;28;20038;-46
2023/06/14 07:47:56;;;;;;;4.88;1.80;;;21.30;1.00;;;;;;20640044;28;20216;-45
2023/06/14 07:58:17;;;;;;;3.28;1.92;;;21.50;1.00;;;;;;20663747;28;20271;-46
2023/06/14 08:08:39;;;;;;;5.07;1.90;;;22.00;1.00;;;;;;20654544;28;20115;-46
2023/06/14 08:19:00;;;;;;;3.58;1.75;;;22.10;1.00;;;;;;20664545;28;20042;-46
2023/06/14 08:29:22;;;;;;;7.55;2.00;;;22.40;1.00;;;;;;20665990;28;20038;-46
2023/06/14 08:39:44;;;;;;;7.55;1.88;;;22.80;1.00;;;;;;20663057;28;20065;-47
2023/06/14 08:50:07;;;;;;;2.17;1.13;;;23.00;1.00;;;;;;20648576;28;20042;-46
2023/06/14 09:00:28;;;;;;;3.60;1.73;;;23.50;1.00;;;;;;20676604;28;20038;-46
2023/06/14 09:10:50;;;;;;;6.13;1.70;;;23.80;1.00;;;;;;20658010;28;20042;-46
2023/06/14 09:21:12;;;;;;;2.22;1.30;;;24.20;1.00;;;;;;20661923;28;20708;-46
2023/06/14 09:31:35;;;;;;;2.78;1.05;;;24.30;1.00;;;;;;20669807;28;20264;-46
2023/06/14 09:41:56;;;;;;;2.28;1.20;;;24.70;1.00;;;;;;20662968;28;20380;-47
2023/06/14 09:52:19;;;;;;;4.25;1.20;;;25.00;1.00;;;;;;20672588;28;20038;-46
2023/06/14 10:02:47;;;;;;;4.18;1.27;;;25.10;1.00;;;;;;20666898;28;20414;-46
2023/06/14 10:13:10;;;;;;;2.75;1.05;;;25.20;1.00;;;;;;20672225;28;20053;-46
2023/06/14 10:23:35;;;;;;;5.63;1.25;;;25.30;1.00;;;;;;20644781;28;20418;-46
2023/06/14 10:33:57;;;;;;;2.30;1.00;;;25.50;1.00;;;;;;20660639;28;20825;-46
2023/06/14 10:44:21;;;;;;;2.60;0.98;;;25.70;1.00;;;;;;20668442;28;20915;-46
2023/06/14 10:55:10;;;;;;;4.97;1.13;;;25.80;1.00;;;;;;20675032;28;20499;-46
2023/06/14 11:05:50;;;;;;;3.58;0.80;;;25.90;1.00;;;;;;20665284;28;20053;-46
2023/06/14 11:16:16;;;;;;;3.75;1.00;;;26.00;1.00;;;;;;20650434;28;20843;-46
2023/06/14 11:26:40;;;;;;;1.88;0.90;;;26.20;1.00;;;;;;20660019;28;20038;-46
2023/06/14 11:37:01;;;;;;;2.75;0.90;;;26.50;1.00;;;;;;20643198;28;20054;-46
2023/06/14 11:47:22;;;;;;;1.92;1.00;;;26.80;1.00;;;;;;20659259;28;20042;-46
2023/06/14 11:57:46;;;;;;;1.77;0.90;;;27.00;1.00;;;;;;20660097;28;20046;-46
2023/06/14 12:08:07;;;;;;;1.75;0.77;;;26.90;1.00;;;;;;20653171;28;20422;-47
2023/06/14 12:18:34;;;;;;;1.83;0.70;;;26.80;1.00;;;;;;20661688;28;20046;-46
2023/06/14 12:28:56;;;;;;;2.33;1.27;;;26.90;1.00;;;;;;20664327;28;20045;-46
2023/06/14 12:39:18;;;;;;;2.00;1.10;;;27.00;1.00;;;;;;20661968;28;20114;-46
2023/06/14 12:49:40;;;;;;;3.60;1.08;;;26.90;1.00;;;;;;20661060;28;20034;-46
2023/06/14 13:00:01;;;;;;;4.38;0.85;;;26.80;1.00;;;;;;20660966;28;20065;-47
2023/06/14 13:10:22;;;;;;;2.05;1.25;;;27.20;1.00;;;;;;20668193;28;20038;-47
2023/06/14 13:20:46;;;;;;;10.02;1.60;;;27.50;1.00;;;;;;20656573;28;20046;-47
2023/06/14 13:31:07;;;;;;;1.95;1.00;;;27.50;1.00;;;;;;20667743;28;20034;-47
2023/06/14 13:41:34;;;;;;;2.00;1.00;;;27.50;1.00;;;;;;20658404;28;20041;-47
2023/06/14 13:51:55;;;;;;;2.03;0.80;;;27.30;1.00;;;;;;20654603;28;20053;-46
2023/06/14 14:02:16;;;;;;;4.68;0.93;;;27.40;1.00;;;;;;20647154;28;20041;-47
2023/06/14 14:12:38;;;;;;;3.33;0.85;;;27.00;1.00;;;;;;20657131;28;20042;-46
2023/06/14 14:22:59;;;;;;;2.90;0.90;;;26.80;1.00;;;;;;20642558;28;20077;-46
2023/06/14 14:33:21;;;;;;;1.75;0.70;;;26.80;1.00;;;;;;20673195;28;20046;-46
2023/06/14 14:43:43;;;;;;;2.65;0.90;;;26.90;1.00;;;;;;20656577;28;20086;-46
2023/06/14 14:54:05;;;;;;;2.65;1.40;;;26.70;1.00;;;;;;20672413;28;20042;-46
2023/06/14 15:04:26;;;;;;;4.45;0.95;;;26.80;1.00;;;;;;20666485;28;20044;-46
2023/06/14 15:14:48;;;;;;;7.13;1.20;;;26.60;1.00;;;;;;20658970;28;20488;-46
2023/06/14 15:25:09;;;;;;;3.45;0.90;;;26.40;1.00;;;;;;20650056;28;20430;-46
2023/06/14 15:35:30;;;;;;;3.85;1.30;;;26.20;1.00;;;;;;20653241;28;20042;-45
2023/06/14 15:45:52;;;;;;;2.38;1.15;;;26.20;1.00;;;;;;20645567;28;20077;-46
2023/06/14 15:56:13;;;;;;;1.60;0.95;;;26.10;1.00;;;;;;20656358;28;20042;-46
2023/06/14 16:06:35;;;;;;;3.53;1.10;;;26.10;1.00;;;;;;20657418;28;20038;-46
2023/06/14 16:16:57;;;;;;;1.42;0.75;;;26.00;1.00;;;;;;20654930;28;20041;-45
2023/06/14 16:27:18;;;;;;;1.98;0.90;;;25.90;1.00;;;;;;20663988;28;20100;-45
2023/06/14 16:37:39;;;;;;;2.20;0.90;;;25.80;1.00;;;;;;20658446;28;20154;-46
2023/06/14 16:48:01;;;;;;;1.25;0.70;;;25.70;1.00;;;;;;20664160;28;20511;-45
2023/06/14 16:58:22;;;;;;;1.85;0.70;;;25.60;1.00;;;;;;20665160;28;20045;-42
2023/06/14 17:08:44;;;;;;;1.95;1.00;;;25.40;1.00;;;;;;20669645;28;20386;-42
2023/06/14 17:19:05;;;;;;;3.40;1.00;;;25.40;1.00;;;;;;20665249;28;20085;-42
2023/06/14 17:29:26;;;;;;;1.70;0.95;;;25.40;1.00;;;;;;20667014;28;20718;-42
2023/06/14 17:39:47;;;;;;;4.32;1.25;;;25.30;1.00;;;;;;20658684;28;20045;-42
2023/06/14 17:50:09;;;;;;;1.60;0.82;;;25.20;1.00;;;;;;20675305;28;20494;-42
2023/06/14 18:00:30;;;;;;;1.85;0.90;;;25.10;1.00;;;;;;20674454;28;20030;-42
2023/06/14 18:10:52;;;;;;;3.40;0.90;;;24.90;1.00;;;;;;20673744;28;20034;-42
2023/06/14 18:21:13;;;;;;;3.13;1.08;;;24.70;1.00;;;;;;20666178;28;21258;-43
2023/06/14 18:31:34;;;;;;;2.35;1.08;;;24.70;1.00;;;;;;20666575;28;20050;-43
2023/06/14 18:41:56;;;;;;;1.60;0.90;;;24.60;1.00;;;;;;20657919;28;20076;-43
2023/06/14 18:52:17;;;;;;;3.67;0.80;;;24.40;1.00;;;;;;20665286;28;20034;-43
2023/06/14 19:02:39;;;;;;;4.18;0.75;;;24.20;1.00;;;;;;20658813;28;20069;-42
2023/06/14 19:13:00;;;;;;;1.90;0.90;;;24.00;1.00;;;;;;20651590;28;20064;-42
2023/06/14 19:23:24;;;;;;;2.45;0.90;;;23.80;1.00;;;;;;20654654;28;20026;-42
2023/06/14 19:33:45;;;;;;;1.38;0.80;;;23.70;1.00;;;;;;20652650;28;20148;-42
2023/06/14 19:44:06;;;;;;;2.42;1.00;;;23.50;1.00;;;;;;20652483;28;20050;-42
2023/06/14 19:54:28;;;;;;;1.48;0.80;;;23.30;1.00;;;;;;20654669;28;20087;-42
2023/06/14 20:04:49;;;;;;;2.35;0.85;;;23.10;1.00;;;;;;20653438;28;20042;-42
2023/06/14 20:15:10;;;;;;;1.75;0.95;;;22.90;1.00;;;;;;20656237;28;20037;-42
2023/06/14 20:25:32;;;;;;;2.13;1.20;;;22.60;1.00;;;;;;20651494;28;20034;-42
2023/06/14 20:35:53;;;;;;;1.48;0.90;;;22.20;1.00;;;;;;20649749;28;20607;-42
2023/06/14 20:46:17;;;;;;;1.70;0.95;;;22.00;1.00;;;;;;20654856;28;20090;-42
2023/06/14 20:56:38;;;;;;;3.55;1.23;;;21.70;1.00;;;;;;20651543;28;20042;-42
2023/06/14 21:06:59;;;;;;;2.20;1.15;;;21.40;1.00;;;;;;20663555;28;20041;-42
2023/06/14 21:17:21;;;;;;;2.53;1.08;;;21.20;1.00;;;;;;20663518;28;20054;-42
2023/06/14 21:27:42;;;;;;;3.25;1.70;;;21.00;1.00;;;;;;20666962;28;20302;-42
2023/06/14 21:38:03;;;;;;;1.88;1.27;;;20.70;1.00;;;;;;20658332;28;20049;-42
2023/06/14 21:48:25;;;;;;;3.97;1.40;;;20.40;1.00;;;;;;20664813;28;20672;-42
2023/06/14 21:58:46;;;;;;;2.58;1.33;;;20.10;1.00;;;;;;20665158;28;20034;-42
2023/06/14 22:09:09;;;;;;;2.25;1.38;;;19.80;1.00;;;;;;20659902;28;20038;-42
2023/06/14 22:19:30;;;;;;;2.08;1.27;;;19.60;1.00;;;;;;20664698;28;20078;-42
2023/06/14 22:29:56;;;;;;;3.25;1.60;;;19.40;1.00;;;;;;20668325;28;20037;-42
2023/06/14 22:40:17;;;;;;;3.47;1.27;;;19.30;1.00;;;;;;20665011;28;20065;-42
2023/06/14 22:50:39;;;;;;;2.65;1.27;;;19.10;1.00;;;;;;20667826;28;20482;-42
2023/06/14 23:01:00;;;;;;;3.10;1.73;;;18.90;1.00;;;;;;20667094;28;20526;-42
2023/06/14 23:11:22;;;;;;;2.95;1.40;;;18.90;1.00;;;;;;20658734;28;20061;-42
2023/06/14 23:21:46;;;;;;;3.05;1.92;;;18.90;1.00;;;;;;20660566;28;20037;-42
2023/06/14 23:32:09;;;;;;;3.00;1.48;;;18.80;1.00;;;;;;20657252;28;20430;-42
2023/06/14 23:42:30;;;;;;;2.67;1.50;;;18.80;1.00;;;;;;20660180;28;20061;-42
2023/06/14 23:52:58;;;;;;;3.65;1.75;;;18.70;1.00;;;;;;20661931;28;20038;-42
